普天間 の空港の天気 - METARとTAF

普天間飛行場 ( ROTM / ) - 沖縄県宜野湾市
飛行場実況気象(Metar)
観測時間07/05 11:56 JST (07/05 02:56 UTC)
風向・風速南南東 4m/s
視程10km以上
天気現象
全天の4割程度の雲 雲底高度 610m
全天の4割程度の雲 雲底高度 4570m
気温30.5℃
湿度77%
気圧1006.9hPa
METARROTM 050256Z 16008KT 9999 SCT020 SCT150 31/26 A2978 RMK SLP069 60001 T03050260 52003
過去の天気等 Google飛行場航空写真 Wunderground天気予報

過去48時間のMETAR

飛行場予報(TAF)
発表時間: -
5日9時 JST ~ 5日11時 JST に徐々に
風向・風速南 6m/s 瞬間風速 10m/s
天気現象周辺で雷
全天の4割程度の塔状積雲 雲底高度 460m
全天の8割程度の雲 雲底高度 910m
全天の8割程度の雲 雲底高度 3660m
5日9時 JST ~ 5日15時 JST に一時的に
風向・風速南 7m/s 瞬間風速 12m/s
視程9000m
天気現象弱いしゅう雨 もや
5日15時 JST から
風向・風速南 6m/s 瞬間風速 11m/s
視程10km以上
天気現象周辺でしゅう雨
少しの雲 雲底高度 610m
全天の4割程度の雲 雲底高度 3050m
TAF COR ROTM 0421/0521 18010G15KT 9999 VCSH FEW020 SCT150 QNH2970INS
BECMG 0500/0502 18012G20KT VCTS SCT015TCU BKN030 BKN120 QNH2972INS
TEMPO 0500/0506 18014G24KT 9000 -SHRA BR
FM050600 18012G22KT 9999 VCSH FEW020 SCT100 QNH2974INS T33/0505Z T26/0518Z COR 2106
日本の空港のMETAR・TAFへのリンク

RJTT 東京国際空港
RJAA 新東京国際空港
RJBB 関西国際空港
RJOO 大阪空港
RJGG 中部国際空港
RJCC 新千歳空港
RJFF 福岡空港
ROAH 那覇空港


RJEC 旭川空港
RJCH 函館空港
RJCK 釧路空港
RJCM 女満別空港
RJCB 帯広空港
RJSA 青森空港
RJSS 仙台空港
RJSK 秋田空港
RJSF 福島空港
RJAH 茨城空港
RJSN 新潟空港
RJNT 富山空港
RJNK 小松飛行場
RJNS 静岡空港
RJOH 美保飛行場
RJOC 出雲空港
RJOB 岡山空港
RJOA 広島空港
RJOI 岩国飛行場
RJOT 高松空港
RJOM 松山空港
RJOK 高知空港
RJFR 北九州空港
RJFT 熊本空港
RJFU 長崎空港
RJFS 佐賀空港
RJFO 大分空港
RJFM 宮崎空港
RJFK 鹿児島空港
ROIG 石垣島空港
RJTY 横田飛行場
ROTM 普天間飛行場
RODN 嘉手納飛行場